sensor_id;sensor_type;location;lat;lon;timestamp;P1;durP1;ratioP1;P2;durP2;ratioP2
27939;SDS011;15275;51.716;14.324;2023-07-29T00:00:52;4.13;;;3.72;;
27939;SDS011;15275;51.716;14.324;2023-07-29T00:03:18;3.63;;;3.08;;
27939;SDS011;15275;51.716;14.324;2023-07-29T00:05:44;4.97;;;3.38;;
27939;SDS011;15275;51.716;14.324;2023-07-29T00:08:12;3.50;;;3.20;;
27939;SDS011;15275;51.716;14.324;2023-07-29T00:10:38;3.40;;;3.10;;
27939;SDS011;15275;51.716;14.324;2023-07-29T00:13:04;3.75;;;3.45;;
27939;SDS011;15275;51.716;14.324;2023-07-29T00:15:33;3.75;;;3.45;;
27939;SDS011;15275;51.716;14.324;2023-07-29T00:17:59;3.92;;;3.40;;
27939;SDS011;15275;51.716;14.324;2023-07-29T00:20:24;3.92;;;3.55;;
27939;SDS011;15275;51.716;14.324;2023-07-29T00:22:50;5.88;;;4.28;;
27939;SDS011;15275;51.716;14.324;2023-07-29T00:25:19;4.93;;;3.95;;
27939;SDS011;15275;51.716;14.324;2023-07-29T00:27:45;4.75;;;4.00;;
27939;SDS011;15275;51.716;14.324;2023-07-29T00:30:11;4.43;;;3.65;;
27939;SDS011;15275;51.716;14.324;2023-07-29T00:32:37;4.43;;;3.67;;
27939;SDS011;15275;51.716;14.324;2023-07-29T00:35:03;5.90;;;3.80;;
27939;SDS011;15275;51.716;14.324;2023-07-29T00:37:29;4.88;;;3.83;;
27939;SDS011;15275;51.716;14.324;2023-07-29T00:39:55;4.95;;;3.67;;
27939;SDS011;15275;51.716;14.324;2023-07-29T00:42:23;4.13;;;3.72;;
27939;SDS011;15275;51.716;14.324;2023-07-29T00:44:49;4.43;;;3.22;;
27939;SDS011;15275;51.716;14.324;2023-07-29T00:47:15;5.00;;;3.88;;
27939;SDS011;15275;51.716;14.324;2023-07-29T00:49:44;4.40;;;4.00;;
27939;SDS011;15275;51.716;14.324;2023-07-29T00:52:11;3.97;;;3.65;;
27939;SDS011;15275;51.716;14.324;2023-07-29T00:54:40;5.30;;;3.53;;
27939;SDS011;15275;51.716;14.324;2023-07-29T00:57:08;3.92;;;3.17;;
27939;SDS011;15275;51.716;14.324;2023-07-29T00:59:35;4.40;;;3.60;;
27939;SDS011;15275;51.716;14.324;2023-07-29T01:02:02;6.40;;;3.20;;
27939;SDS011;15275;51.716;14.324;2023-07-29T01:04:28;4.13;;;3.22;;
27939;SDS011;15275;51.716;14.324;2023-07-29T01:06:58;3.85;;;3.40;;
27939;SDS011;15275;51.716;14.324;2023-07-29T01:17:48;4.70;;;3.95;;
27939;SDS011;15275;51.716;14.324;2023-07-29T01:20:20;4.63;;;4.10;;
27939;SDS011;15275;51.716;14.324;2023-07-29T01:22:49;4.60;;;4.20;;
27939;SDS011;15275;51.716;14.324;2023-07-29T01:25:15;5.25;;;4.30;;
27939;SDS011;15275;51.716;14.324;2023-07-29T01:27:43;5.18;;;4.40;;
27939;SDS011;15275;51.716;14.324;2023-07-29T01:30:10;6.07;;;4.38;;
27939;SDS011;15275;51.716;14.324;2023-07-29T01:32:46;5.53;;;4.47;;
27939;SDS011;15275;51.716;14.324;2023-07-29T01:35:27;4.50;;;4.10;;
27939;SDS011;15275;51.716;14.324;2023-07-29T01:40:31;4.28;;;3.80;;
27939;SDS011;15275;51.716;14.324;2023-07-29T01:42:57;4.13;;;3.72;;
27939;SDS011;15275;51.716;14.324;2023-07-29T01:45:23;4.68;;;4.20;;
27939;SDS011;15275;51.716;14.324;2023-07-29T01:47:52;5.10;;;3.53;;
27939;SDS011;15275;51.716;14.324;2023-07-29T01:50:18;4.35;;;3.63;;
27939;SDS011;15275;51.716;14.324;2023-07-29T01:52:44;4.13;;;3.72;;
27939;SDS011;15275;51.716;14.324;2023-07-29T01:55:10;4.75;;;3.88;;
27939;SDS011;15275;51.716;14.324;2023-07-29T01:57:35;4.15;;;3.75;;
27939;SDS011;15275;51.716;14.324;2023-07-29T02:00:01;4.75;;;3.92;;
27939;SDS011;15275;51.716;14.324;2023-07-29T02:02:29;5.60;;;3.80;;
27939;SDS011;15275;51.716;14.324;2023-07-29T02:04:54;4.97;;;4.47;;
27939;SDS011;15275;51.716;14.324;2023-07-29T02:07:21;7.40;;;4.18;;
27939;SDS011;15275;51.716;14.324;2023-07-29T02:09:47;6.25;;;4.00;;
27939;SDS011;15275;51.716;14.324;2023-07-29T02:12:13;4.50;;;4.10;;
27939;SDS011;15275;51.716;14.324;2023-07-29T02:14:38;5.93;;;4.30;;
27939;SDS011;15275;51.716;14.324;2023-07-29T02:17:04;5.75;;;4.55;;
27939;SDS011;15275;51.716;14.324;2023-07-29T02:19:30;4.97;;;4.47;;
27939;SDS011;15275;51.716;14.324;2023-07-29T02:21:56;4.78;;;4.10;;
27939;SDS011;15275;51.716;14.324;2023-07-29T02:24:21;5.68;;;3.97;;
27939;SDS011;15275;51.716;14.324;2023-07-29T02:26:47;7.45;;;4.40;;
27939;SDS011;15275;51.716;14.324;2023-07-29T02:29:13;5.50;;;4.05;;
27939;SDS011;15275;51.716;14.324;2023-07-29T02:31:39;4.03;;;3.60;;
27939;SDS011;15275;51.716;14.324;2023-07-29T02:34:04;5.82;;;4.30;;
27939;SDS011;15275;51.716;14.324;2023-07-29T02:36:30;7.47;;;3.85;;
27939;SDS011;15275;51.716;14.324;2023-07-29T02:38:56;4.38;;;3.80;;
27939;SDS011;15275;51.716;14.324;2023-07-29T02:41:22;3.92;;;3.63;;
27939;SDS011;15275;51.716;14.324;2023-07-29T02:43:48;5.80;;;3.95;;
27939;SDS011;15275;51.716;14.324;2023-07-29T02:46:15;6.22;;;4.05;;
27939;SDS011;15275;51.716;14.324;2023-07-29T02:48:41;8.02;;;4.05;;
27939;SDS011;15275;51.716;14.324;2023-07-29T02:51:08;6.07;;;4.35;;
27939;SDS011;15275;51.716;14.324;2023-07-29T02:53:34;4.93;;;4.18;;
27939;SDS011;15275;51.716;14.324;2023-07-29T02:56:01;4.80;;;3.55;;
27939;SDS011;15275;51.716;14.324;2023-07-29T02:58:35;4.93;;;4.35;;
27939;SDS011;15275;51.716;14.324;2023-07-29T03:01:02;4.35;;;3.72;;
27939;SDS011;15275;51.716;14.324;2023-07-29T03:03:29;4.43;;;4.03;;
27939;SDS011;15275;51.716;14.324;2023-07-29T03:06:03;4.10;;;3.65;;
27939;SDS011;15275;51.716;14.324;2023-07-29T03:08:35;5.18;;;3.83;;
27939;SDS011;15275;51.716;14.324;2023-07-29T03:11:11;4.13;;;3.72;;
27939;SDS011;15275;51.716;14.324;2023-07-29T03:13:39;7.32;;;3.75;;
27939;SDS011;15275;51.716;14.324;2023-07-29T03:16:13;7.85;;;3.83;;
27939;SDS011;15275;51.716;14.324;2023-07-29T03:18:41;6.72;;;3.58;;
27939;SDS011;15275;51.716;14.324;2023-07-29T03:21:08;3.40;;;3.10;;
27939;SDS011;15275;51.716;14.324;2023-07-29T03:23:35;3.75;;;3.40;;
27939;SDS011;15275;51.716;14.324;2023-07-29T03:26:03;3.50;;;2.97;;
27939;SDS011;15275;51.716;14.324;2023-07-29T03:28:35;4.28;;;3.05;;
27939;SDS011;15275;51.716;14.324;2023-07-29T03:31:04;5.47;;;2.90;;
27939;SDS011;15275;51.716;14.324;2023-07-29T03:33:30;6.13;;;3.50;;
27939;SDS011;15275;51.716;14.324;2023-07-29T03:35:55;5.78;;;2.90;;
27939;SDS011;15275;51.716;14.324;2023-07-29T03:38:21;6.47;;;3.50;;
27939;SDS011;15275;51.716;14.324;2023-07-29T03:40:47;7.57;;;2.85;;
27939;SDS011;15275;51.716;14.324;2023-07-29T03:43:14;4.55;;;3.38;;
27939;SDS011;15275;51.716;14.324;2023-07-29T03:45:40;3.20;;;2.80;;
27939;SDS011;15275;51.716;14.324;2023-07-29T03:48:06;3.42;;;3.13;;
27939;SDS011;15275;51.716;14.324;2023-07-29T03:50:33;3.63;;;2.95;;
27939;SDS011;15275;51.716;14.324;2023-07-29T03:53:00;4.25;;;3.20;;
27939;SDS011;15275;51.716;14.324;2023-07-29T03:55:27;3.47;;;2.97;;
27939;SDS011;15275;51.716;14.324;2023-07-29T03:57:55;4.25;;;3.00;;
27939;SDS011;15275;51.716;14.324;2023-07-29T04:00:24;3.03;;;2.70;;
27939;SDS011;15275;51.716;14.324;2023-07-29T04:02:50;3.92;;;2.70;;
27939;SDS011;15275;51.716;14.324;2023-07-29T04:05:16;3.20;;;2.83;;
27939;SDS011;15275;51.716;14.324;2023-07-29T04:07:43;5.30;;;3.13;;
27939;SDS011;15275;51.716;14.324;2023-07-29T04:10:09;4.63;;;2.90;;
27939;SDS011;15275;51.716;14.324;2023-07-29T04:12:36;3.42;;;2.88;;
27939;SDS011;15275;51.716;14.324;2023-07-29T04:15:02;3.15;;;2.85;;
27939;SDS011;15275;51.716;14.324;2023-07-29T04:17:28;3.38;;;3.00;;
27939;SDS011;15275;51.716;14.324;2023-07-29T04:19:54;4.35;;;3.17;;
27939;SDS011;15275;51.716;14.324;2023-07-29T04:22:20;7.07;;;3.00;;
27939;SDS011;15275;51.716;14.324;2023-07-29T04:24:46;4.00;;;3.22;;
27939;SDS011;15275;51.716;14.324;2023-07-29T04:27:12;3.42;;;2.55;;
27939;SDS011;15275;51.716;14.324;2023-07-29T04:29:37;3.75;;;2.25;;
27939;SDS011;15275;51.716;14.324;2023-07-29T04:32:03;3.15;;;2.50;;
27939;SDS011;15275;51.716;14.324;2023-07-29T04:34:30;2.15;;;1.95;;
27939;SDS011;15275;51.716;14.324;2023-07-29T04:36:56;2.13;;;1.92;;
27939;SDS011;15275;51.716;14.324;2023-07-29T04:39:22;2.75;;;2.22;;
27939;SDS011;15275;51.716;14.324;2023-07-29T04:41:48;2.13;;;1.80;;
27939;SDS011;15275;51.716;14.324;2023-07-29T04:44:14;2.30;;;2.10;;
27939;SDS011;15275;51.716;14.324;2023-07-29T04:46:40;1.77;;;1.65;;
27939;SDS011;15275;51.716;14.324;2023-07-29T04:49:05;2.05;;;1.80;;
27939;SDS011;15275;51.716;14.324;2023-07-29T04:51:32;1.70;;;1.60;;
27939;SDS011;15275;51.716;14.324;2023-07-29T04:53:58;3.13;;;2.10;;
27939;SDS011;15275;51.716;14.324;2023-07-29T04:56:24;1.83;;;1.63;;
27939;SDS011;15275;51.716;14.324;2023-07-29T04:58:50;3.45;;;1.80;;
27939;SDS011;15275;51.716;14.324;2023-07-29T05:01:15;2.22;;;1.48;;
27939;SDS011;15275;51.716;14.324;2023-07-29T05:03:41;2.80;;;1.85;;
27939;SDS011;15275;51.716;14.324;2023-07-29T05:06:07;1.67;;;1.58;;
27939;SDS011;15275;51.716;14.324;2023-07-29T05:08:33;2.50;;;1.73;;
27939;SDS011;15275;51.716;14.324;2023-07-29T05:10:59;1.73;;;1.63;;
27939;SDS011;15275;51.716;14.324;2023-07-29T05:13:25;1.50;;;1.40;;
27939;SDS011;15275;51.716;14.324;2023-07-29T05:15:51;1.88;;;1.67;;
27939;SDS011;15275;51.716;14.324;2023-07-29T05:18:17;1.73;;;1.63;;
27939;SDS011;15275;51.716;14.324;2023-07-29T05:20:43;3.55;;;1.60;;
27939;SDS011;15275;51.716;14.324;2023-07-29T05:23:09;1.75;;;1.55;;
27939;SDS011;15275;51.716;14.324;2023-07-29T05:25:34;1.63;;;1.52;;
27939;SDS011;15275;51.716;14.324;2023-07-29T05:28:01;2.20;;;1.50;;
27939;SDS011;15275;51.716;14.324;2023-07-29T05:30:27;1.77;;;1.45;;
27939;SDS011;15275;51.716;14.324;2023-07-29T05:32:56;2.17;;;1.67;;
27939;SDS011;15275;51.716;14.324;2023-07-29T05:35:23;1.65;;;1.55;;
27939;SDS011;15275;51.716;14.324;2023-07-29T05:37:49;6.45;;;1.65;;
27939;SDS011;15275;51.716;14.324;2023-07-29T05:40:15;2.25;;;1.48;;
27939;SDS011;15275;51.716;14.324;2023-07-29T05:42:42;1.55;;;1.45;;
27939;SDS011;15275;51.716;14.324;2023-07-29T05:45:09;1.88;;;1.58;;
27939;SDS011;15275;51.716;14.324;2023-07-29T05:47:35;2.17;;;1.70;;
27939;SDS011;15275;51.716;14.324;2023-07-29T05:50:01;1.70;;;1.60;;
27939;SDS011;15275;51.716;14.324;2023-07-29T05:52:29;4.55;;;1.50;;
27939;SDS011;15275;51.716;14.324;2023-07-29T05:54:56;1.80;;;1.63;;
27939;SDS011;15275;51.716;14.324;2023-07-29T05:57:22;3.50;;;1.45;;
27939;SDS011;15275;51.716;14.324;2023-07-29T05:59:48;1.98;;;1.63;;
27939;SDS011;15275;51.716;14.324;2023-07-29T06:02:14;4.80;;;1.40;;
27939;SDS011;15275;51.716;14.324;2023-07-29T06:04:39;2.97;;;1.38;;
27939;SDS011;15275;51.716;14.324;2023-07-29T06:07:05;1.27;;;1.17;;
27939;SDS011;15275;51.716;14.324;2023-07-29T06:09:31;1.55;;;1.45;;
27939;SDS011;15275;51.716;14.324;2023-07-29T06:11:57;1.35;;;1.25;;
27939;SDS011;15275;51.716;14.324;2023-07-29T06:14:23;1.58;;;1.42;;
27939;SDS011;15275;51.716;14.324;2023-07-29T06:16:49;1.35;;;1.25;;
27939;SDS011;15275;51.716;14.324;2023-07-29T06:19:14;1.45;;;1.35;;
27939;SDS011;15275;51.716;14.324;2023-07-29T06:21:40;4.38;;;1.38;;
27939;SDS011;15275;51.716;14.324;2023-07-29T06:24:07;1.30;;;1.20;;
27939;SDS011;15275;51.716;14.324;2023-07-29T06:26:32;1.42;;;1.20;;
27939;SDS011;15275;51.716;14.324;2023-07-29T06:28:58;1.67;;;1.58;;
27939;SDS011;15275;51.716;14.324;2023-07-29T06:31:24;1.13;;;1.02;;
27939;SDS011;15275;51.716;14.324;2023-07-29T06:33:50;1.98;;;1.40;;
27939;SDS011;15275;51.716;14.324;2023-07-29T06:36:16;2.97;;;1.48;;
27939;SDS011;15275;51.716;14.324;2023-07-29T06:38:42;1.27;;;1.05;;
27939;SDS011;15275;51.716;14.324;2023-07-29T06:41:07;2.70;;;1.20;;
27939;SDS011;15275;51.716;14.324;2023-07-29T06:43:33;2.70;;;1.20;;
27939;SDS011;15275;51.716;14.324;2023-07-29T06:45:59;2.13;;;1.05;;
27939;SDS011;15275;51.716;14.324;2023-07-29T06:48:25;5.00;;;1.50;;
27939;SDS011;15275;51.716;14.324;2023-07-29T06:50:51;2.42;;;1.40;;
27939;SDS011;15275;51.716;14.324;2023-07-29T06:53:17;1.27;;;1.10;;
27939;SDS011;15275;51.716;14.324;2023-07-29T06:55:43;1.35;;;1.25;;
27939;SDS011;15275;51.716;14.324;2023-07-29T06:58:09;1.38;;;1.20;;
27939;SDS011;15275;51.716;14.324;2023-07-29T07:00:35;1.60;;;1.25;;
27939;SDS011;15275;51.716;14.324;2023-07-29T07:03:01;1.17;;;1.08;;
27939;SDS011;15275;51.716;14.324;2023-07-29T07:05:27;1.08;;;0.98;;
27939;SDS011;15275;51.716;14.324;2023-07-29T07:07:53;1.13;;;1.02;;
27939;SDS011;15275;51.716;14.324;2023-07-29T07:10:19;1.33;;;1.23;;
27939;SDS011;15275;51.716;14.324;2023-07-29T07:12:44;1.35;;;0.93;;
27939;SDS011;15275;51.716;14.324;2023-07-29T07:15:10;1.48;;;0.98;;
27939;SDS011;15275;51.716;14.324;2023-07-29T07:17:36;1.17;;;1.08;;
27939;SDS011;15275;51.716;14.324;2023-07-29T07:20:02;1.30;;;1.20;;
27939;SDS011;15275;51.716;14.324;2023-07-29T07:22:28;2.28;;;0.98;;
27939;SDS011;15275;51.716;14.324;2023-07-29T07:24:54;1.20;;;1.10;;
27939;SDS011;15275;51.716;14.324;2023-07-29T07:27:20;1.15;;;1.05;;
27939;SDS011;15275;51.716;14.324;2023-07-29T07:29:46;1.55;;;1.10;;
27939;SDS011;15275;51.716;14.324;2023-07-29T07:32:12;1.30;;;1.05;;
27939;SDS011;15275;51.716;14.324;2023-07-29T07:34:37;1.35;;;0.90;;
27939;SDS011;15275;51.716;14.324;2023-07-29T07:37:03;1.65;;;1.30;;
27939;SDS011;15275;51.716;14.324;2023-07-29T07:39:29;1.92;;;1.23;;
27939;SDS011;15275;51.716;14.324;2023-07-29T07:41:57;1.65;;;1.17;;
27939;SDS011;15275;51.716;14.324;2023-07-29T07:44:23;1.52;;;1.00;;
27939;SDS011;15275;51.716;14.324;2023-07-29T07:46:51;1.20;;;1.02;;
27939;SDS011;15275;51.716;14.324;2023-07-29T07:49:18;1.85;;;1.20;;
27939;SDS011;15275;51.716;14.324;2023-07-29T07:51:44;2.55;;;1.20;;
27939;SDS011;15275;51.716;14.324;2023-07-29T07:54:10;1.30;;;1.20;;
27939;SDS011;15275;51.716;14.324;2023-07-29T07:56:36;1.15;;;1.05;;
27939;SDS011;15275;51.716;14.324;2023-07-29T07:59:01;2.47;;;1.30;;
27939;SDS011;15275;51.716;14.324;2023-07-29T08:01:33;1.42;;;1.33;;
27939;SDS011;15275;51.716;14.324;2023-07-29T08:04:04;1.00;;;0.85;;
27939;SDS011;15275;51.716;14.324;2023-07-29T08:06:31;1.13;;;1.02;;
27939;SDS011;15275;51.716;14.324;2023-07-29T08:08:57;1.02;;;0.93;;
27939;SDS011;15275;51.716;14.324;2023-07-29T08:11:24;1.70;;;1.20;;
27939;SDS011;15275;51.716;14.324;2023-07-29T08:13:50;1.50;;;1.17;;
27939;SDS011;15275;51.716;14.324;2023-07-29T08:16:17;1.10;;;1.00;;
27939;SDS011;15275;51.716;14.324;2023-07-29T08:18:43;0.90;;;0.90;;
27939;SDS011;15275;51.716;14.324;2023-07-29T08:21:09;1.63;;;0.90;;
27939;SDS011;15275;51.716;14.324;2023-07-29T08:23:35;0.95;;;0.95;;
27939;SDS011;15275;51.716;14.324;2023-07-29T08:26:03;1.10;;;1.00;;
27939;SDS011;15275;51.716;14.324;2023-07-29T08:28:31;1.15;;;1.05;;
27939;SDS011;15275;51.716;14.324;2023-07-29T08:31:02;1.15;;;1.05;;
27939;SDS011;15275;51.716;14.324;2023-07-29T08:33:29;3.78;;;0.98;;
27939;SDS011;15275;51.716;14.324;2023-07-29T08:35:56;1.05;;;0.95;;
27939;SDS011;15275;51.716;14.324;2023-07-29T08:38:22;0.90;;;0.90;;
27939;SDS011;15275;51.716;14.324;2023-07-29T08:40:50;1.73;;;1.10;;
27939;SDS011;15275;51.716;14.324;2023-07-29T08:46:41;1.35;;;1.10;;
27939;SDS011;15275;51.716;14.324;2023-07-29T08:49:08;1.88;;;0.90;;
27939;SDS011;15275;51.716;14.324;2023-07-29T08:51:36;0.93;;;0.88;;
27939;SDS011;15275;51.716;14.324;2023-07-29T08:54:03;1.20;;;0.95;;
27939;SDS011;15275;51.716;14.324;2023-07-29T08:56:29;4.93;;;1.23;;
27939;SDS011;15275;51.716;14.324;2023-07-29T08:58:55;1.60;;;1.13;;
27939;SDS011;15275;51.716;14.324;2023-07-29T09:01:21;1.90;;;1.00;;
27939;SDS011;15275;51.716;14.324;2023-07-29T09:03:47;0.95;;;0.85;;
27939;SDS011;15275;51.716;14.324;2023-07-29T09:06:13;1.48;;;1.10;;
27939;SDS011;15275;51.716;14.324;2023-07-29T09:08:41;1.20;;;1.10;;
27939;SDS011;15275;51.716;14.324;2023-07-29T09:11:08;1.25;;;1.10;;
27939;SDS011;15275;51.716;14.324;2023-07-29T09:13:34;1.60;;;1.20;;
27939;SDS011;15275;51.716;14.324;2023-07-29T09:16:00;1.10;;;1.00;;
27939;SDS011;15275;51.716;14.324;2023-07-29T09:18:26;0.93;;;0.90;;
27939;SDS011;15275;51.716;14.324;2023-07-29T09:20:53;1.17;;;1.00;;
27939;SDS011;15275;51.716;14.324;2023-07-29T09:23:19;1.45;;;0.93;;
27939;SDS011;15275;51.716;14.324;2023-07-29T09:25:48;1.35;;;1.00;;
27939;SDS011;15275;51.716;14.324;2023-07-29T09:28:15;1.30;;;1.20;;
27939;SDS011;15275;51.716;14.324;2023-07-29T09:30:45;1.02;;;0.85;;
27939;SDS011;15275;51.716;14.324;2023-07-29T09:33:11;1.20;;;1.10;;
27939;SDS011;15275;51.716;14.324;2023-07-29T09:35:37;1.05;;;0.95;;
27939;SDS011;15275;51.716;14.324;2023-07-29T09:38:04;1.10;;;1.00;;
27939;SDS011;15275;51.716;14.324;2023-07-29T09:40:35;1.10;;;1.00;;
27939;SDS011;15275;51.716;14.324;2023-07-29T09:43:03;1.48;;;1.00;;
27939;SDS011;15275;51.716;14.324;2023-07-29T09:45:29;1.17;;;1.10;;
27939;SDS011;15275;51.716;14.324;2023-07-29T09:47:58;1.10;;;1.00;;
27939;SDS011;15275;51.716;14.324;2023-07-29T09:50:24;0.93;;;0.90;;
27939;SDS011;15275;51.716;14.324;2023-07-29T09:52:51;1.65;;;1.02;;
27939;SDS011;15275;51.716;14.324;2023-07-29T09:55:19;1.20;;;1.00;;
27939;SDS011;15275;51.716;14.324;2023-07-29T09:57:52;1.10;;;1.00;;
27939;SDS011;15275;51.716;14.324;2023-07-29T10:00:25;0.93;;;0.93;;
27939;SDS011;15275;51.716;14.324;2023-07-29T10:02:52;1.10;;;1.00;;
27939;SDS011;15275;51.716;14.324;2023-07-29T10:05:19;1.30;;;1.10;;
27939;SDS011;15275;51.716;14.324;2023-07-29T10:07:48;1.45;;;1.10;;
27939;SDS011;15275;51.716;14.324;2023-07-29T10:10:15;2.15;;;1.00;;
27939;SDS011;15275;51.716;14.324;2023-07-29T10:12:41;1.55;;;0.90;;
27939;SDS011;15275;51.716;14.324;2023-07-29T10:15:08;1.60;;;1.10;;
27939;SDS011;15275;51.716;14.324;2023-07-29T10:17:35;1.75;;;1.00;;
27939;SDS011;15275;51.716;14.324;2023-07-29T10:20:03;1.00;;;0.90;;
27939;SDS011;15275;51.716;14.324;2023-07-29T10:22:38;1.10;;;1.00;;
27939;SDS011;15275;51.716;14.324;2023-07-29T10:25:07;0.95;;;0.88;;
27939;SDS011;15275;51.716;14.324;2023-07-29T10:30:22;1.17;;;1.08;;
27939;SDS011;15275;51.716;14.324;2023-07-29T10:32:50;0.90;;;0.90;;
27939;SDS011;15275;51.716;14.324;2023-07-29T10:35:18;1.20;;;1.08;;
27939;SDS011;15275;51.716;14.324;2023-07-29T10:37:44;1.25;;;1.00;;
27939;SDS011;15275;51.716;14.324;2023-07-29T10:40:10;1.30;;;1.00;;
27939;SDS011;15275;51.716;14.324;2023-07-29T10:42:37;2.08;;;1.05;;
27939;SDS011;15275;51.716;14.324;2023-07-29T10:45:38;0.80;;;0.80;;
27939;SDS011;15275;51.716;14.324;2023-07-29T10:48:06;1.00;;;0.90;;
27939;SDS011;15275;51.716;14.324;2023-07-29T10:50:36;1.08;;;0.98;;
27939;SDS011;15275;51.716;14.324;2023-07-29T10:53:03;2.45;;;1.00;;
27939;SDS011;15275;51.716;14.324;2023-07-29T10:55:29;1.05;;;0.98;;
27939;SDS011;15275;51.716;14.324;2023-07-29T10:58:23;4.03;;;0.97;;
27939;SDS011;15275;51.716;14.324;2023-07-29T11:00:48;0.75;;;0.75;;
27939;SDS011;15275;51.716;14.324;2023-07-29T11:03:14;1.75;;;0.80;;
27939;SDS011;15275;51.716;14.324;2023-07-29T11:05:50;0.85;;;0.85;;
27939;SDS011;15275;51.716;14.324;2023-07-29T11:08:18;0.93;;;0.82;;
27939;SDS011;15275;51.716;14.324;2023-07-29T11:10:57;1.88;;;1.05;;
27939;SDS011;15275;51.716;14.324;2023-07-29T11:13:33;0.90;;;0.90;;
27939;SDS011;15275;51.716;14.324;2023-07-29T11:16:01;1.00;;;0.90;;
27939;SDS011;15275;51.716;14.324;2023-07-29T11:18:29;1.17;;;1.05;;
27939;SDS011;15275;51.716;14.324;2023-07-29T11:21:00;1.23;;;0.98;;
27939;SDS011;15275;51.716;14.324;2023-07-29T11:23:34;1.08;;;0.98;;
27939;SDS011;15275;51.716;14.324;2023-07-29T11:26:02;2.13;;;1.10;;
27939;SDS011;15275;51.716;14.324;2023-07-29T11:28:29;1.08;;;0.98;;
27939;SDS011;15275;51.716;14.324;2023-07-29T11:30:55;1.55;;;0.88;;
27939;SDS011;15275;51.716;14.324;2023-07-29T11:33:24;1.08;;;0.90;;
27939;SDS011;15275;51.716;14.324;2023-07-29T11:35:51;1.83;;;0.88;;
27939;SDS011;15275;51.716;14.324;2023-07-29T11:38:18;1.27;;;1.08;;
27939;SDS011;15275;51.716;14.324;2023-07-29T11:40:58;0.80;;;0.70;;
27939;SDS011;15275;51.716;14.324;2023-07-29T11:43:28;1.02;;;0.93;;
27939;SDS011;15275;51.716;14.324;2023-07-29T11:45:54;1.15;;;1.05;;
27939;SDS011;15275;51.716;14.324;2023-07-29T11:48:26;2.88;;;2.00;;
27939;SDS011;15275;51.716;14.324;2023-07-29T11:50:54;1.50;;;1.17;;
27939;SDS011;15275;51.716;14.324;2023-07-29T11:53:20;3.05;;;1.98;;
27939;SDS011;15275;51.716;14.324;2023-07-29T11:55:49;4.00;;;2.70;;
27939;SDS011;15275;51.716;14.324;2023-07-29T11:58:18;8.50;;;5.65;;
27939;SDS011;15275;51.716;14.324;2023-07-29T12:00:46;4.13;;;2.45;;
27939;SDS011;15275;51.716;14.324;2023-07-29T12:03:12;3.90;;;1.40;;
27939;SDS011;15275;51.716;14.324;2023-07-29T12:05:38;1.02;;;0.88;;
27939;SDS011;15275;51.716;14.324;2023-07-29T12:08:04;0.95;;;0.93;;
27939;SDS011;15275;51.716;14.324;2023-07-29T12:10:30;1.20;;;0.95;;
27939;SDS011;15275;51.716;14.324;2023-07-29T12:12:57;1.00;;;0.90;;
27939;SDS011;15275;51.716;14.324;2023-07-29T12:15:26;3.13;;;0.90;;
27939;SDS011;15275;51.716;14.324;2023-07-29T12:17:54;1.10;;;1.00;;
27939;SDS011;15275;51.716;14.324;2023-07-29T12:20:22;1.10;;;1.00;;
27939;SDS011;15275;51.716;14.324;2023-07-29T12:22:56;0.80;;;0.80;;
27939;SDS011;15275;51.716;14.324;2023-07-29T12:25:24;0.77;;;0.70;;
27939;SDS011;15275;51.716;14.324;2023-07-29T12:27:51;6.70;;;1.10;;
27939;SDS011;15275;51.716;14.324;2023-07-29T12:30:21;1.42;;;1.00;;
27939;SDS011;15275;51.716;14.324;2023-07-29T12:32:48;2.85;;;0.98;;
27939;SDS011;15275;51.716;14.324;2023-07-29T12:35:14;3.15;;;1.20;;
27939;SDS011;15275;51.716;14.324;2023-07-29T12:37:40;5.03;;;0.95;;
27939;SDS011;15275;51.716;14.324;2023-07-29T12:40:20;2.88;;;1.30;;
27939;SDS011;15275;51.716;14.324;2023-07-29T12:42:50;2.97;;;1.13;;
27939;SDS011;15275;51.716;14.324;2023-07-29T12:45:16;1.42;;;1.23;;
27939;SDS011;15275;51.716;14.324;2023-07-29T12:47:43;2.05;;;1.02;;
27939;SDS011;15275;51.716;14.324;2023-07-29T12:50:09;1.23;;;1.13;;
27939;SDS011;15275;51.716;14.324;2023-07-29T12:52:35;10.85;;;1.00;;
27939;SDS011;15275;51.716;14.324;2023-07-29T12:55:01;1.75;;;1.00;;
27939;SDS011;15275;51.716;14.324;2023-07-29T12:57:27;1.13;;;1.00;;
27939;SDS011;15275;51.716;14.324;2023-07-29T12:59:52;2.10;;;0.93;;
27939;SDS011;15275;51.716;14.324;2023-07-29T13:02:18;1.60;;;1.10;;
27939;SDS011;15275;51.716;14.324;2023-07-29T13:04:44;0.80;;;0.80;;
27939;SDS011;15275;51.716;14.324;2023-07-29T13:07:10;5.38;;;0.90;;
27939;SDS011;15275;51.716;14.324;2023-07-29T13:09:36;0.80;;;0.80;;
27939;SDS011;15275;51.716;14.324;2023-07-29T13:12:01;0.80;;;0.70;;
27939;SDS011;15275;51.716;14.324;2023-07-29T13:14:27;0.80;;;0.60;;
27939;SDS011;15275;51.716;14.324;2023-07-29T13:16:53;1.15;;;0.88;;
27939;SDS011;15275;51.716;14.324;2023-07-29T13:19:19;3.15;;;0.80;;
27939;SDS011;15275;51.716;14.324;2023-07-29T13:21:45;1.13;;;0.88;;
27939;SDS011;15275;51.716;14.324;2023-07-29T13:24:10;1.50;;;0.90;;
27939;SDS011;15275;51.716;14.324;2023-07-29T13:26:36;0.90;;;0.80;;
27939;SDS011;15275;51.716;14.324;2023-07-29T13:29:02;9.40;;;1.10;;
27939;SDS011;15275;51.716;14.324;2023-07-29T13:31:29;3.78;;;0.93;;
27939;SDS011;15275;51.716;14.324;2023-07-29T13:33:55;6.10;;;0.93;;
27939;SDS011;15275;51.716;14.324;2023-07-29T13:36:21;4.38;;;1.08;;
27939;SDS011;15275;51.716;14.324;2023-07-29T13:38:47;6.82;;;1.25;;
27939;SDS011;15275;51.716;14.324;2023-07-29T13:41:13;1.40;;;1.00;;
27939;SDS011;15275;51.716;14.324;2023-07-29T13:43:38;1.50;;;1.02;;
27939;SDS011;15275;51.716;14.324;2023-07-29T13:46:04;1.75;;;0.88;;
27939;SDS011;15275;51.716;14.324;2023-07-29T13:48:30;4.78;;;0.80;;
27939;SDS011;15275;51.716;14.324;2023-07-29T13:50:58;1.05;;;0.90;;
27939;SDS011;15275;51.716;14.324;2023-07-29T13:53:23;2.17;;;0.85;;
27939;SDS011;15275;51.716;14.324;2023-07-29T13:55:50;1.08;;;0.98;;
27939;SDS011;15275;51.716;14.324;2023-07-29T13:58:16;0.95;;;0.90;;
27939;SDS011;15275;51.716;14.324;2023-07-29T14:00:42;0.85;;;0.85;;
27939;SDS011;15275;51.716;14.324;2023-07-29T14:03:08;1.55;;;0.93;;
27939;SDS011;15275;51.716;14.324;2023-07-29T14:05:33;1.30;;;1.00;;
27939;SDS011;15275;51.716;14.324;2023-07-29T14:07:59;1.35;;;0.90;;
27939;SDS011;15275;51.716;14.324;2023-07-29T14:10:25;1.40;;;0.88;;
27939;SDS011;15275;51.716;14.324;2023-07-29T14:12:51;1.00;;;0.90;;
27939;SDS011;15275;51.716;14.324;2023-07-29T14:15:17;1.80;;;1.20;;
27939;SDS011;15275;51.716;14.324;2023-07-29T14:17:43;1.83;;;1.20;;
27939;SDS011;15275;51.716;14.324;2023-07-29T14:20:09;1.95;;;1.38;;
27939;SDS011;15275;51.716;14.324;2023-07-29T14:22:36;8.95;;;1.30;;
27939;SDS011;15275;51.716;14.324;2023-07-29T14:25:01;1.60;;;1.10;;
27939;SDS011;15275;51.716;14.324;2023-07-29T14:27:27;1.95;;;1.27;;
27939;SDS011;15275;51.716;14.324;2023-07-29T14:29:53;1.70;;;1.10;;
27939;SDS011;15275;51.716;14.324;2023-07-29T14:32:19;1.30;;;1.02;;
27939;SDS011;15275;51.716;14.324;2023-07-29T14:34:45;1.40;;;1.10;;
27939;SDS011;15275;51.716;14.324;2023-07-29T14:37:11;5.32;;;1.10;;
27939;SDS011;15275;51.716;14.324;2023-07-29T14:39:36;1.20;;;1.10;;
27939;SDS011;15275;51.716;14.324;2023-07-29T14:42:03;7.55;;;1.08;;
27939;SDS011;15275;51.716;14.324;2023-07-29T14:44:29;6.57;;;2.10;;
27939;SDS011;15275;51.716;14.324;2023-07-29T14:46:54;10.05;;;1.70;;
27939;SDS011;15275;51.716;14.324;2023-07-29T14:49:20;3.50;;;1.45;;